createdAt,value
2018-03-11T00:02:19.337Z,48.47
2018-03-11T00:04:46.433Z,44.50
2018-03-11T00:07:14.591Z,43.43
2018-03-11T00:09:41.627Z,49.17
2018-03-11T00:12:10.262Z,49.03
2018-03-11T00:14:38.095Z,45.97
2018-03-11T00:17:06.476Z,49.40
2018-03-11T00:19:33.426Z,40.77
2018-03-11T00:22:00.466Z,45.17
2018-03-11T00:24:27.845Z,39.97
2018-03-11T00:26:54.833Z,44.77
2018-03-11T00:29:21.618Z,44.43
2018-03-11T00:31:48.400Z,42.37
2018-03-11T00:34:16.337Z,43.33
2018-03-11T00:36:43.226Z,64.50
2018-03-11T00:39:09.998Z,44.77
2018-03-11T00:41:36.763Z,47.67
2018-03-11T00:44:03.526Z,41.77
2018-03-11T00:46:30.294Z,70.23
2018-03-11T00:48:57.080Z,98.30
2018-03-11T00:51:23.858Z,68.47
2018-03-11T00:53:50.649Z,48.70
2018-03-11T00:56:17.470Z,40.70
2018-03-11T00:58:44.284Z,87.50
2018-03-11T01:01:11.098Z,48.07
2018-03-11T01:03:37.870Z,48.10
2018-03-11T01:06:04.687Z,40.13
2018-03-11T01:08:31.483Z,43.10
2018-03-11T01:10:58.273Z,42.97
2018-03-11T01:13:25.034Z,39.17
2018-03-11T01:15:52.830Z,36.57
2018-03-11T01:18:19.639Z,39.93
2018-03-11T01:20:46.441Z,42.77
2018-03-11T01:23:13.235Z,40.17
2018-03-11T01:25:40.005Z,42.20
2018-03-11T01:28:06.807Z,40.00
2018-03-11T01:30:33.573Z,41.07
2018-03-11T01:33:00.353Z,40.07
2018-03-11T01:35:27.118Z,41.13
2018-03-11T01:37:53.878Z,37.60
2018-03-11T01:40:20.657Z,40.77
2018-03-11T01:42:47.414Z,44.20
2018-03-11T01:45:14.195Z,48.27
2018-03-11T01:47:40.991Z,40.83
2018-03-11T01:50:07.788Z,40.53
2018-03-11T01:52:40.706Z,39.83
2018-03-11T01:55:07.482Z,41.40
2018-03-11T01:57:34.250Z,39.30
2018-03-11T02:00:01.046Z,44.10
2018-03-11T02:02:27.820Z,42.37
2018-03-11T02:04:54.586Z,61.47
2018-03-11T02:07:21.394Z,46.70
2018-03-11T02:09:48.160Z,46.80
2018-03-11T02:12:14.962Z,49.27
2018-03-11T02:14:41.736Z,44.53
2018-03-11T02:17:08.630Z,47.80
2018-03-11T02:19:35.394Z,40.20
2018-03-11T02:22:02.203Z,46.80
2018-03-11T02:24:28.966Z,47.30
2018-03-11T02:26:55.732Z,47.60
2018-03-11T02:29:22.529Z,47.33
2018-03-11T02:31:49.954Z,45.27
2018-03-11T02:34:16.880Z,48.07
2018-03-11T02:36:43.788Z,45.23
2018-03-11T02:39:10.572Z,43.23
2018-03-11T02:41:37.346Z,47.00
2018-03-11T02:44:04.126Z,46.83
2018-03-11T02:46:30.896Z,43.10
2018-03-11T02:48:57.710Z,47.60
2018-03-11T02:51:24.486Z,46.07
2018-03-11T02:53:51.261Z,48.60
2018-03-11T02:56:18.045Z,47.23
2018-03-11T02:58:44.986Z,47.40
2018-03-11T03:01:11.929Z,49.63
2018-03-11T03:03:38.878Z,51.00
2018-03-11T03:06:05.644Z,46.50
2018-03-11T03:08:32.411Z,47.40
2018-03-11T03:10:59.210Z,49.97
2018-03-11T03:13:25.975Z,43.70
2018-03-11T03:15:52.882Z,47.70
2018-03-11T03:18:19.716Z,47.07
2018-03-11T03:20:46.491Z,44.33
2018-03-11T03:23:13.254Z,47.07
2018-03-11T03:25:40.015Z,51.00
2018-03-11T03:28:06.792Z,50.57
2018-03-11T03:30:33.574Z,52.60
2018-03-11T03:33:00.411Z,49.37
2018-03-11T03:35:27.185Z,45.60
2018-03-11T03:37:53.953Z,45.87
2018-03-11T03:40:20.722Z,50.20
2018-03-11T03:42:47.501Z,45.07
2018-03-11T03:45:14.305Z,52.43
2018-03-11T03:47:41.077Z,51.17
2018-03-11T03:50:07.875Z,50.13
2018-03-11T03:52:34.679Z,44.77
2018-03-11T03:55:01.935Z,45.50
2018-03-11T03:57:28.759Z,44.87
2018-03-11T03:59:55.524Z,50.97
2018-03-11T04:02:22.302Z,52.23
2018-03-11T04:04:49.086Z,47.80
2018-03-11T04:07:15.882Z,50.80
2018-03-11T04:09:42.647Z,51.73
2018-03-11T04:12:09.541Z,50.20
2018-03-11T04:14:36.347Z,49.63
2018-03-11T04:17:03.151Z,53.70
2018-03-11T04:19:30.042Z,50.13
2018-03-11T04:21:56.843Z,49.13
2018-03-11T04:24:23.774Z,50.30
2018-03-11T04:26:50.566Z,47.07
2018-03-11T04:29:17.379Z,47.40
2018-03-11T04:31:44.142Z,63.93
2018-03-11T04:34:10.930Z,59.40
2018-03-11T04:36:37.770Z,58.43
2018-03-11T04:39:04.579Z,57.20
2018-03-11T04:41:31.384Z,47.33
2018-03-11T04:43:58.199Z,43.43
2018-03-11T04:46:24.978Z,46.27
2018-03-11T04:48:51.757Z,44.90
2018-03-11T04:51:18.547Z,104.10
2018-03-11T04:53:45.348Z,104.30
2018-03-11T04:56:12.122Z,68.20
2018-03-11T04:58:38.963Z,49.97
2018-03-11T05:01:05.767Z,45.33
2018-03-11T05:03:32.576Z,44.23
2018-03-11T05:05:59.565Z,45.73
2018-03-11T05:08:26.633Z,58.37
2018-03-11T05:10:53.399Z,43.73
2018-03-11T05:13:20.187Z,54.20
2018-03-11T05:15:47.030Z,77.50
2018-03-11T05:18:13.804Z,63.23
2018-03-11T05:20:40.596Z,76.33
2018-03-11T05:23:07.449Z,64.70
2018-03-11T05:25:34.244Z,69.63
2018-03-11T05:28:01.029Z,115.33
2018-03-11T05:30:27.803Z,76.40
2018-03-11T05:32:54.622Z,92.23
2018-03-11T05:35:21.398Z,157.70
2018-03-11T05:37:48.207Z,85.37
2018-03-11T05:40:15.135Z,58.60
2018-03-11T05:42:42.269Z,54.80
2018-03-11T05:45:09.175Z,48.47
2018-03-11T05:47:36.018Z,57.63
2018-03-11T05:50:02.838Z,49.93
2018-03-11T05:52:29.609Z,60.20
2018-03-11T05:54:56.414Z,53.27
2018-03-11T05:57:23.198Z,50.90
2018-03-11T05:59:49.982Z,49.63
2018-03-11T06:02:16.786Z,45.13
2018-03-11T06:04:43.543Z,51.63
2018-03-11T06:07:10.318Z,52.57
2018-03-11T06:09:37.067Z,53.83
2018-03-11T06:12:03.842Z,50.50
2018-03-11T06:14:30.611Z,52.23
2018-03-11T06:16:57.470Z,52.87
2018-03-11T06:19:24.246Z,53.17
2018-03-11T06:21:51.041Z,49.20
2018-03-11T06:24:17.830Z,57.17
2018-03-11T06:26:44.668Z,49.67
2018-03-11T06:29:11.450Z,51.57
2018-03-11T06:31:38.356Z,48.43
2018-03-11T06:34:05.145Z,45.37
2018-03-11T06:36:31.925Z,44.33
2018-03-11T06:38:58.773Z,43.23
2018-03-11T06:41:25.554Z,40.10
2018-03-11T06:43:52.323Z,41.43
2018-03-11T06:46:19.114Z,39.57
2018-03-11T06:48:45.944Z,46.87
2018-03-11T06:51:12.752Z,45.07
2018-03-11T06:53:39.513Z,48.80
2018-03-11T06:56:06.305Z,43.37
2018-03-11T06:58:33.114Z,46.87
2018-03-11T07:00:59.919Z,39.53
2018-03-11T07:03:26.720Z,33.60
2018-03-11T07:05:53.511Z,35.97
2018-03-11T07:08:20.323Z,35.10
2018-03-11T07:10:47.142Z,38.13
2018-03-11T07:13:13.957Z,42.57
2018-03-11T07:15:40.763Z,37.47
2018-03-11T07:18:07.613Z,36.67
2018-03-11T07:20:34.419Z,37.10
2018-03-11T07:23:01.210Z,34.20
2018-03-11T07:25:28.027Z,31.93
2018-03-11T07:27:54.799Z,31.13
2018-03-11T07:30:21.596Z,30.97
2018-03-11T07:32:48.444Z,29.87
2018-03-11T07:35:15.295Z,29.33
2018-03-11T07:37:42.074Z,30.50
2018-03-11T07:40:08.841Z,37.73
2018-03-11T07:42:35.658Z,38.90
2018-03-11T07:45:02.469Z,37.43
2018-03-11T07:47:29.284Z,30.00
2018-03-11T07:49:56.084Z,31.20
2018-03-11T07:52:22.891Z,25.80
2018-03-11T07:54:49.678Z,26.27
2018-03-11T07:57:16.447Z,24.73
2018-03-11T07:59:43.256Z,27.67
2018-03-11T08:02:10.163Z,27.20
2018-03-11T08:04:36.992Z,30.23
2018-03-11T08:07:03.827Z,27.77
2018-03-11T08:09:30.658Z,30.80
2018-03-11T08:11:57.450Z,27.57
2018-03-11T08:14:24.230Z,29.07
2018-03-11T08:20:22.809Z,22.40
2018-03-11T08:22:49.851Z,26.13
2018-03-11T08:25:16.632Z,21.90
2018-03-11T08:27:43.408Z,23.20
2018-03-11T08:30:10.245Z,24.07
2018-03-11T08:32:37.058Z,23.47
2018-03-11T08:35:03.841Z,21.70
2018-03-11T08:37:30.665Z,24.90
2018-03-11T08:39:57.474Z,23.43
2018-03-11T08:42:24.285Z,24.07
2018-03-11T08:44:51.074Z,23.20
2018-03-11T08:47:17.866Z,23.27
2018-03-11T08:49:44.754Z,26.37
2018-03-11T08:52:11.525Z,22.87
2018-03-11T08:54:38.329Z,21.63
2018-03-11T08:57:05.132Z,21.27
2018-03-11T08:59:33.148Z,21.60
2018-03-11T09:01:59.992Z,20.63
2018-03-11T09:04:27.127Z,26.30
2018-03-11T09:06:54.049Z,22.17
2018-03-11T09:09:21.040Z,20.93
2018-03-11T09:11:47.904Z,23.17
2018-03-11T09:14:14.733Z,20.90
2018-03-11T09:16:41.576Z,28.80
2018-03-11T09:19:08.397Z,24.07
2018-03-11T09:21:35.232Z,23.37
2018-03-11T09:24:02.135Z,24.27
2018-03-11T09:26:29.076Z,23.77
2018-03-11T09:28:56.050Z,25.90
2018-03-11T09:31:22.884Z,25.63
2018-03-11T09:33:49.724Z,23.57
2018-03-11T09:36:16.635Z,25.20
2018-03-11T09:38:43.480Z,24.43
2018-03-11T09:41:10.315Z,26.97
2018-03-11T09:43:38.228Z,24.10
2018-03-11T09:46:05.472Z,28.73
2018-03-11T09:48:32.324Z,22.80
2018-03-11T09:50:59.171Z,26.17
2018-03-11T09:53:25.947Z,27.27
2018-03-11T09:55:52.735Z,22.20
2018-03-11T09:58:19.533Z,22.17
2018-03-11T10:00:46.364Z,19.67
2018-03-11T10:03:13.199Z,24.40
2018-03-11T10:05:40.042Z,22.30
2018-03-11T10:08:07.039Z,22.87
2018-03-11T10:10:33.915Z,22.40
2018-03-11T10:13:00.788Z,19.87
2018-03-11T10:15:27.710Z,19.70
2018-03-11T10:17:54.557Z,24.53
2018-03-11T10:20:21.385Z,16.40
2018-03-11T10:22:48.238Z,24.17
2018-03-11T10:25:15.088Z,15.27
2018-03-11T10:27:41.966Z,13.80
2018-03-11T10:30:08.846Z,12.37
2018-03-11T10:32:35.707Z,15.70
2018-03-11T10:35:02.518Z,12.67
2018-03-11T10:37:29.386Z,13.20
2018-03-11T10:39:56.300Z,12.53
2018-03-11T10:42:23.063Z,12.43
2018-03-11T10:44:49.907Z,12.50
2018-03-11T10:47:16.730Z,14.87
2018-03-11T10:49:43.584Z,14.03
2018-03-11T10:52:10.472Z,9.40
2018-03-11T10:54:37.470Z,13.37
2018-03-11T10:57:04.303Z,16.27
2018-03-11T10:59:31.111Z,14.07
2018-03-11T11:02:14.782Z,13.53
2018-03-11T11:04:42.376Z,10.37
2018-03-11T11:07:09.214Z,12.00
2018-03-11T11:09:36.090Z,11.47
2018-03-11T11:12:02.879Z,12.13
2018-03-11T11:14:30.504Z,11.50
2018-03-11T11:16:57.352Z,11.90
2018-03-11T11:19:24.162Z,13.80
2018-03-11T11:21:50.929Z,14.47
2018-03-11T11:24:17.750Z,21.30
2018-03-11T11:26:44.559Z,21.23
2018-03-11T11:29:11.322Z,15.50
2018-03-11T11:31:38.130Z,22.67
2018-03-11T11:34:04.938Z,25.30
2018-03-11T11:36:31.734Z,21.17
2018-03-11T11:38:58.980Z,28.47
2018-03-11T11:41:25.836Z,26.90
2018-03-11T11:43:52.637Z,23.73
2018-03-11T11:46:19.535Z,24.77
2018-03-11T11:48:46.387Z,28.23
2018-03-11T11:51:13.162Z,22.30
2018-03-11T11:53:40.135Z,26.00
2018-03-11T11:56:06.957Z,23.83
2018-03-11T11:58:33.753Z,26.00
2018-03-11T12:01:00.567Z,25.83
2018-03-11T12:03:27.365Z,22.93
2018-03-11T12:05:54.197Z,21.53
2018-03-11T12:08:21.025Z,21.97
2018-03-11T12:10:47.838Z,22.30
2018-03-11T12:13:14.653Z,23.63
2018-03-11T12:15:41.453Z,27.27
2018-03-11T12:18:08.234Z,18.13
2018-03-11T12:20:35.044Z,19.40
2018-03-11T12:23:01.855Z,21.83
2018-03-11T12:25:28.645Z,18.53
2018-03-11T12:27:55.460Z,18.30
2018-03-11T12:30:22.250Z,18.77
2018-03-11T12:32:49.038Z,17.77
2018-03-11T12:35:15.974Z,16.07
2018-03-11T12:37:43.580Z,16.10
2018-03-11T12:40:10.391Z,18.47
2018-03-11T12:42:38.110Z,16.03
2018-03-11T12:45:04.920Z,20.57
2018-03-11T12:47:31.706Z,22.97
2018-03-11T12:49:58.622Z,26.40
2018-03-11T12:52:25.423Z,19.87
2018-03-11T12:54:52.243Z,15.93
2018-03-11T12:57:19.045Z,18.10
2018-03-11T12:59:45.845Z,17.10
2018-03-11T13:02:12.755Z,20.83
2018-03-11T13:04:39.621Z,20.17
2018-03-11T13:07:06.431Z,16.33
2018-03-11T13:09:33.190Z,17.50
2018-03-11T13:12:00.011Z,17.37
2018-03-11T13:14:26.801Z,20.80
2018-03-11T13:16:53.666Z,19.20
2018-03-11T13:19:20.471Z,22.03
2018-03-11T13:21:47.290Z,19.10
2018-03-11T13:24:14.091Z,19.97
2018-03-11T13:26:40.938Z,16.93
2018-03-11T13:29:07.733Z,16.17
2018-03-11T13:31:34.523Z,16.33
2018-03-11T13:34:07.258Z,14.50
2018-03-11T13:36:34.058Z,18.80
2018-03-11T13:39:06.642Z,13.13
2018-03-11T13:41:33.414Z,13.17
2018-03-11T13:44:00.280Z,15.97
2018-03-11T13:46:33.050Z,11.53
2018-03-11T13:48:59.825Z,13.63
2018-03-11T13:51:32.560Z,14.33
2018-03-11T13:53:59.542Z,15.47
2018-03-11T13:56:26.688Z,12.80
2018-03-11T13:58:53.478Z,15.23
2018-03-11T14:01:20.343Z,16.33
2018-03-11T14:03:47.111Z,12.53
2018-03-11T14:06:13.903Z,17.37
2018-03-11T14:08:40.691Z,11.07
2018-03-11T14:11:07.584Z,12.57
2018-03-11T14:13:34.421Z,11.23
2018-03-11T14:16:01.199Z,14.53
2018-03-11T14:18:27.962Z,13.37
2018-03-11T14:20:54.759Z,11.90
2018-03-11T14:23:21.538Z,11.87
2018-03-11T14:25:48.371Z,15.13
2018-03-11T14:28:15.146Z,13.23
2018-03-11T14:30:41.969Z,16.37
2018-03-11T14:33:08.770Z,16.43
2018-03-11T14:35:35.523Z,15.13
2018-03-11T14:38:02.306Z,11.67
2018-03-11T14:40:29.074Z,12.37
2018-03-11T14:42:56.288Z,13.00
2018-03-11T14:45:23.464Z,15.27
2018-03-11T14:47:50.262Z,11.53
2018-03-11T14:50:17.054Z,11.00
2018-03-11T14:52:43.998Z,12.47
2018-03-11T14:55:10.785Z,12.30
2018-03-11T14:57:37.587Z,12.83
2018-03-11T15:00:05.219Z,10.13
2018-03-11T15:02:31.999Z,10.93
2018-03-11T15:04:58.824Z,9.13
2018-03-11T15:07:26.327Z,14.00
2018-03-11T15:09:53.198Z,11.97
2018-03-11T15:12:19.969Z,11.40
2018-03-11T15:14:46.769Z,12.43
2018-03-11T15:17:13.685Z,12.27
2018-03-11T15:19:48.787Z,14.50
2018-03-11T15:22:15.594Z,13.73
2018-03-11T15:24:42.382Z,12.60
2018-03-11T15:27:09.192Z,13.77
2018-03-11T15:29:36.553Z,19.67
2018-03-11T15:32:03.375Z,12.20
2018-03-11T15:34:30.162Z,13.20
2018-03-11T15:36:56.947Z,14.43
2018-03-11T15:39:23.748Z,18.30
2018-03-11T15:41:50.551Z,16.83
2018-03-11T15:44:17.390Z,15.10
2018-03-11T15:46:44.185Z,16.63
2018-03-11T15:49:10.975Z,10.43
2018-03-11T15:51:37.757Z,11.00
2018-03-11T15:54:04.572Z,13.47
2018-03-11T15:56:31.341Z,15.33
2018-03-11T15:58:58.113Z,14.93
2018-03-11T16:01:24.957Z,19.50
2018-03-11T16:03:51.815Z,19.17
2018-03-11T16:06:18.594Z,20.87
2018-03-11T16:08:45.400Z,21.73
2018-03-11T16:11:12.172Z,14.87
2018-03-11T16:13:38.982Z,16.50
2018-03-11T16:16:05.802Z,16.47
2018-03-11T16:18:32.602Z,19.57
2018-03-11T16:20:59.410Z,18.70
2018-03-11T16:23:26.229Z,18.17
2018-03-11T16:25:53.024Z,30.03
2018-03-11T16:28:19.801Z,30.23
2018-03-11T16:30:46.777Z,19.73
2018-03-11T16:33:13.575Z,20.13
2018-03-11T16:35:40.382Z,17.43
2018-03-11T16:38:07.154Z,20.00
2018-03-11T16:40:34.665Z,23.50
2018-03-11T16:43:01.477Z,26.03
2018-03-11T16:45:32.007Z,23.67
2018-03-11T16:47:58.818Z,27.97
2018-03-11T16:50:25.658Z,29.80
2018-03-11T16:52:52.701Z,33.23
2018-03-11T16:55:19.522Z,32.33
2018-03-11T16:57:46.358Z,34.57
2018-03-11T17:00:13.172Z,38.30
2018-03-11T17:02:39.998Z,37.60
2018-03-11T17:05:06.819Z,30.90
2018-03-11T17:07:33.759Z,35.63
2018-03-11T17:10:00.735Z,29.07
2018-03-11T17:12:28.444Z,28.30
2018-03-11T17:14:55.772Z,21.43
2018-03-11T17:17:22.590Z,22.50
2018-03-11T17:19:49.734Z,27.00
2018-03-11T17:22:16.588Z,48.57
2018-03-11T17:24:43.390Z,84.30
2018-03-11T17:27:10.287Z,24.03
2018-03-11T17:29:37.142Z,26.20
2018-03-11T17:32:03.948Z,28.17
2018-03-11T17:36:05.403Z,38.47
2018-03-11T17:38:43.363Z,31.80
2018-03-11T17:41:11.702Z,35.37
2018-03-11T17:43:47.207Z,44.30
2018-03-11T17:46:24.354Z,29.53
2018-03-11T17:48:51.752Z,31.67
2018-03-11T17:51:18.579Z,45.90
2018-03-11T17:53:45.466Z,42.77
2018-03-11T17:56:12.244Z,48.03
2018-03-11T17:58:39.950Z,48.57
2018-03-11T18:01:06.738Z,44.07
2018-03-11T18:03:33.577Z,45.23
2018-03-11T18:06:00.424Z,81.13
2018-03-11T18:08:27.225Z,65.30
2018-03-11T18:10:54.038Z,51.73
2018-03-11T18:13:20.855Z,53.20
2018-03-11T18:15:47.738Z,67.97
2018-03-11T18:18:14.627Z,44.70
2018-03-11T18:20:41.486Z,36.93
2018-03-11T18:23:08.287Z,36.27
2018-03-11T18:25:35.096Z,33.33
2018-03-11T18:28:01.932Z,38.07
2018-03-11T18:30:28.782Z,33.23
2018-03-11T18:32:55.637Z,36.67
2018-03-11T18:35:23.128Z,34.30
2018-03-11T18:37:49.958Z,31.60
2018-03-11T18:40:16.813Z,35.97
2018-03-11T18:42:43.621Z,40.00
2018-03-11T18:45:10.488Z,39.23
2018-03-11T18:47:38.101Z,33.30
2018-03-11T18:50:04.955Z,36.33
2018-03-11T18:52:31.757Z,38.00
2018-03-11T18:54:58.588Z,34.30
2018-03-11T18:57:25.395Z,34.50
2018-03-11T18:59:52.231Z,49.07
2018-03-11T19:02:19.195Z,44.03
2018-03-11T19:04:46.818Z,52.03
2018-03-11T19:07:15.920Z,58.50
2018-03-11T19:09:43.884Z,59.70
2018-03-11T19:12:12.779Z,61.33
2018-03-11T19:14:39.889Z,47.40
2018-03-11T19:17:07.595Z,46.50
2018-03-11T19:19:35.415Z,53.00
2018-03-11T19:22:03.972Z,59.33
2018-03-11T19:24:31.145Z,56.50
2018-03-11T19:26:59.859Z,47.13
2018-03-11T19:29:30.823Z,50.27
2018-03-11T19:32:03.371Z,49.67
2018-03-11T19:34:31.509Z,55.27
2018-03-11T19:36:59.196Z,44.37
2018-03-11T19:39:27.595Z,53.03
2018-03-11T19:41:55.155Z,49.90
2018-03-11T19:44:23.675Z,58.17
2018-03-11T19:46:50.612Z,54.20
2018-03-11T19:49:20.851Z,51.07
2018-03-11T19:51:49.397Z,51.23
2018-03-11T19:54:17.126Z,43.10
2018-03-11T19:56:44.399Z,40.67
2018-03-11T19:59:11.338Z,42.50
2018-03-11T20:01:39.701Z,43.60
2018-03-11T20:04:06.949Z,43.50
2018-03-11T20:06:34.762Z,46.73
2018-03-11T20:09:03.916Z,42.80
2018-03-11T20:11:36.705Z,67.07
2018-03-11T20:14:05.344Z,46.33
2018-03-11T20:16:36.326Z,44.83
2018-03-11T20:19:06.205Z,37.20
2018-03-11T20:21:38.464Z,54.80
2018-03-11T20:24:06.203Z,39.63
2018-03-11T20:26:37.797Z,52.57
2018-03-11T20:29:04.631Z,55.53
2018-03-11T20:31:36.084Z,63.20
2018-03-11T20:34:17.265Z,156.17
2018-03-11T20:36:44.120Z,144.67
2018-03-11T20:39:13.808Z,113.13
2018-03-11T20:41:41.123Z,77.60
2018-03-11T20:44:12.183Z,66.97
2018-03-11T20:46:39.740Z,67.33
2018-03-11T20:49:09.706Z,65.70
2018-03-11T20:51:36.888Z,67.23
2018-03-11T20:54:10.613Z,65.80
2018-03-11T20:56:37.474Z,64.10
2018-03-11T20:59:06.941Z,74.33
2018-03-11T21:01:37.354Z,69.87
2018-03-11T21:04:04.590Z,76.63
2018-03-11T21:06:31.639Z,83.97
2018-03-11T21:08:59.737Z,80.83
2018-03-11T21:11:27.624Z,79.80
2018-03-11T21:13:55.272Z,86.73
2018-03-11T21:16:22.100Z,93.03
2018-03-11T21:18:48.920Z,86.47
2018-03-11T21:21:15.767Z,83.27
2018-03-11T21:23:43.370Z,93.27
2018-03-11T21:26:10.219Z,136.33
2018-03-11T21:28:37.034Z,106.30
2018-03-11T21:31:05.126Z,117.67
2018-03-11T21:33:33.378Z,120.07
2018-03-11T21:36:01.355Z,86.77
2018-03-11T21:38:28.196Z,66.47
2018-03-11T21:40:55.028Z,79.90
2018-03-11T21:43:21.898Z,65.67
2018-03-11T21:45:48.721Z,62.43
2018-03-11T21:48:15.545Z,69.33
2018-03-11T21:50:42.384Z,65.00
2018-03-11T21:53:09.385Z,70.33
2018-03-11T21:55:36.198Z,65.87
2018-03-11T21:58:03.324Z,101.10
2018-03-11T22:00:30.150Z,58.87
2018-03-11T22:02:56.984Z,100.70
2018-03-11T22:05:23.779Z,59.10
2018-03-11T22:07:53.665Z,52.60
2018-03-11T22:10:20.483Z,97.47
2018-03-11T22:12:47.312Z,100.17
2018-03-11T22:15:14.653Z,72.13
2018-03-11T22:17:41.554Z,53.23
2018-03-11T22:20:08.395Z,56.70
2018-03-11T22:22:35.195Z,51.87
2018-03-11T22:25:02.009Z,49.97
2018-03-11T22:27:39.097Z,56.83
2018-03-11T22:30:07.179Z,51.47
2018-03-11T22:32:36.925Z,44.57
2018-03-11T22:35:04.407Z,42.10
2018-03-11T22:37:31.194Z,40.20
2018-03-11T22:40:01.128Z,43.67
2018-03-11T22:42:28.446Z,42.43
2018-03-11T22:44:55.302Z,44.13
2018-03-11T22:47:23.204Z,49.93
2018-03-11T22:52:48.469Z,44.53
2018-03-11T22:55:17.707Z,46.07
2018-03-11T22:58:03.491Z,44.93
2018-03-11T23:00:32.382Z,42.90
2018-03-11T23:02:59.203Z,39.53
2018-03-11T23:05:26.284Z,43.37
2018-03-11T23:07:53.335Z,43.93
2018-03-11T23:10:20.121Z,39.20
2018-03-11T23:12:47.010Z,37.30
2018-03-11T23:15:13.791Z,38.20
2018-03-11T23:17:40.579Z,40.93
2018-03-11T23:20:07.524Z,42.57
2018-03-11T23:22:34.374Z,39.37
2018-03-11T23:25:02.155Z,35.93
2018-03-11T23:27:30.794Z,37.07
2018-03-11T23:29:57.609Z,36.10
2018-03-11T23:32:24.399Z,29.13
2018-03-11T23:34:51.245Z,34.53
2018-03-11T23:37:18.499Z,30.67
2018-03-11T23:39:45.300Z,34.07
2018-03-11T23:42:12.132Z,40.90
2018-03-11T23:44:38.943Z,44.37
2018-03-11T23:47:06.010Z,40.20
2018-03-11T23:49:32.940Z,37.47
2018-03-11T23:51:59.899Z,43.87
2018-03-11T23:54:26.664Z,34.60
2018-03-11T23:56:53.454Z,36.07
2018-03-11T23:59:20.361Z,32.70
